Time;durP1;ratioP1;P1;durP2;ratioP2;P2;SDS_P1;SDS_P2;PMS_P1;PMS_P2;Temp;Humidity;BMP_temperature;BMP_pressure;BME280_temperature;BME280_humidity;BME280_pressure;Samples;Min_cycle;Max_cycle;Signal;HPM_P1;HPM_P2
2023/04/05 00:01:42;;;;;;;5.60;3.30;;;;;;;-0.73;100.00;100787.74;110060;1237;67942;-72
2023/04/05 00:04:13;;;;;;;8.10;4.70;;;;;;;-0.73;100.00;100799.05;110046;1238;71864;-75
2023/04/05 00:06:42;;;;;;;6.70;4.00;;;;;;;-0.69;100.00;100791.09;109892;1242;60306;-73
2023/04/05 00:09:11;;;;;;;7.40;4.30;;;;;;;-0.70;100.00;100797.26;110049;1238;60133;-73
2023/04/05 00:11:40;;;;;;;9.20;4.80;;;;;;;-0.73;100.00;100782.11;110045;1237;72357;-74
2023/04/05 00:14:09;;;;;;;8.10;5.20;;;;;;;-0.73;100.00;100784.85;109956;1238;72207;-72
2023/04/05 00:16:39;;;;;;;7.70;4.80;;;;;;;-0.71;100.00;100785.31;110014;1237;71875;-72
2023/04/05 00:19:11;;;;;;;7.40;5.00;;;;;;;-0.76;100.00;100787.66;109821;1237;72024;-71
2023/04/05 00:21:40;;;;;;;6.20;3.60;;;;;;;-0.75;100.00;100782.15;109991;1241;59696;-71
2023/04/05 00:24:14;;;;;;;7.80;4.80;;;;;;;-0.74;100.00;100782.30;110067;1237;60303;-70
2023/04/05 00:26:43;;;;;;;6.00;3.80;;;;;;;-0.77;100.00;100783.24;110229;1237;71738;-71
2023/04/05 00:29:12;;;;;;;4.80;3.40;;;;;;;-0.77;100.00;100777.93;110217;1238;70150;-72
2023/04/05 00:31:40;;;;;;;7.50;5.40;;;;;;;-0.75;100.00;100772.60;110064;1237;68709;-72
2023/04/05 00:34:11;;;;;;;7.30;4.50;;;;;;;-0.79;100.00;100774.73;110237;1239;72718;-72
2023/04/05 00:36:40;;;;;;;6.50;4.20;;;;;;;-0.79;100.00;100773.71;110186;1241;61116;-72
2023/04/05 00:39:08;;;;;;;6.90;4.20;;;;;;;-0.75;100.00;100759.42;110185;1238;61039;-73
2023/04/05 00:41:37;;;;;;;6.20;3.90;;;;;;;-0.80;100.00;100761.60;109957;1238;72513;-73
2023/04/05 00:44:06;;;;;;;5.80;4.00;;;;;;;-0.81;100.00;100756.14;109944;1241;70402;-72
2023/04/05 00:46:36;;;;;;;5.70;4.00;;;;;;;-0.77;100.00;100762.38;110064;1237;69593;-72
2023/04/05 00:49:05;;;;;;;6.70;4.40;;;;;;;-0.75;100.00;100759.41;110041;1238;73966;-73
2023/04/05 00:51:34;;;;;;;7.10;4.50;;;;;;;-0.77;100.00;100759.30;109931;1242;61639;-73
2023/04/05 00:54:03;;;;;;;5.80;4.10;;;;;;;-0.76;100.00;100759.27;110018;1238;60879;-72
2023/04/05 00:56:32;;;;;;;4.90;3.30;;;;;;;-0.77;100.00;100744.24;109922;1238;72851;-72
2023/04/05 00:59:01;;;;;;;5.80;4.10;;;;;;;-0.78;100.00;100754.86;109918;1238;70262;-72
2023/04/05 01:01:31;;;;;;;5.60;3.60;;;;;;;-0.77;100.00;100758.61;109929;1238;69482;-73
2023/04/05 01:04:04;;;;;;;7.70;4.60;;;;;;;-0.80;100.00;100753.72;109798;1238;72514;-73
2023/04/05 01:06:57;;;;;;;5.50;3.50;;;;;;;-0.81;100.00;100749.46;109765;1242;61486;-73
2023/04/05 01:09:43;;;;;;;3.80;2.40;;;;;;;-0.86;100.00;100750.95;110075;1238;60734;-74
2023/04/05 01:12:18;;;;;;;5.60;3.90;;;;;;;-0.82;100.00;100740.42;109953;1241;72215;-73
2023/04/05 01:14:50;;;;;;;5.10;3.10;;;;;;;-0.82;100.00;100746.42;109989;1238;71373;-75
2023/04/05 01:17:28;;;;;;;5.70;3.30;;;;;;;-0.85;100.00;100738.63;110019;1238;70272;-74
2023/04/05 01:20:05;;;;;;;5.40;3.40;;;;;;;-0.81;100.00;100742.98;109781;1238;71212;-73
2023/04/05 01:23:01;;;;;;;7.30;3.90;;;;;;;-0.84;100.00;100756.05;109724;1242;61176;-73
2023/04/05 01:26:32;;;;;;;4.80;3.60;;;;;;;-0.82;100.00;100728.62;109871;1238;59224;-71
2023/04/05 01:29:42;;;;;;;4.50;3.10;;;;;;;-0.82;100.00;100730.17;109761;1242;73035;-71
2023/04/05 01:32:51;;;;;;;6.20;3.10;;;;;;;-0.83;100.00;100724.04;109752;1238;71409;-71
2023/04/05 01:35:39;;;;;;;6.20;4.00;;;;;;;-0.82;100.00;100747.43;109743;1238;68607;-72
2023/04/05 01:38:12;;;;;;;6.40;4.30;;;;;;;-0.79;100.00;100742.59;109713;1238;71371;-71
2023/04/05 01:40:42;;;;;;;10.50;4.50;;;;;;;-0.80;100.00;100755.09;109602;1242;61868;-71
2023/04/05 01:43:17;;;;;;;6.00;3.90;;;;;;;-0.78;100.00;100754.52;109750;1238;59375;-71
2023/04/05 01:45:47;;;;;;;7.70;4.70;;;;;;;-0.74;100.00;100758.54;109734;1241;72771;-72
2023/04/05 01:48:16;;;;;;;7.10;4.80;;;;;;;-0.73;100.00;100754.73;109599;1242;70381;-71
2023/04/05 01:50:46;;;;;;;7.20;5.00;;;;;;;-0.69;100.00;100761.14;109840;1238;70983;-73
2023/04/05 01:53:16;;;;;;;5.60;3.70;;;;;;;-0.69;100.00;100763.88;109712;1238;71953;-72
2023/04/05 01:55:46;;;;;;;10.60;3.40;;;;;;;-0.75;100.00;100764.38;109743;1239;62765;-73
2023/04/05 01:58:15;;;;;;;12.30;5.90;;;;;;;-0.76;100.00;100755.16;109760;1238;59263;-72
2023/04/05 02:00:45;;;;;;;7.80;4.40;;;;;;;-0.76;100.00;100747.48;109746;1238;74424;-71
2023/04/05 02:03:14;;;;;;;7.10;4.90;;;;;;;-0.76;100.00;100751.05;109846;1238;72585;-71
2023/04/05 02:05:43;;;;;;;7.10;5.00;;;;;;;-0.73;100.00;100756.81;109777;1238;70056;-73
2023/04/05 02:08:13;;;;;;;9.50;5.40;;;;;;;-0.76;100.00;100758.91;109726;1238;72354;-73
2023/04/05 02:10:43;;;;;;;8.70;5.00;;;;;;;-0.74;100.00;100749.80;109772;1241;61099;-71
2023/04/05 02:13:13;;;;;;;7.20;4.30;;;;;;;-0.69;100.00;100758.92;109617;1238;61275;-71
2023/04/05 02:15:48;;;;;;;7.50;4.10;;;;;;;-0.72;100.00;100760.36;109856;1238;73968;-73
2023/04/05 02:18:21;;;;;;;6.90;5.10;;;;;;;-0.70;100.00;100753.98;109640;1238;69722;-72
2023/04/05 02:20:51;;;;;;;7.70;4.90;;;;;;;-0.76;100.00;100745.58;109885;1238;68626;-73
2023/04/05 02:23:20;;;;;;;10.40;6.60;;;;;;;-0.81;100.00;100747.58;109829;1239;72063;-73
2023/04/05 02:25:50;;;;;;;8.70;5.70;;;;;;;-0.82;100.00;100735.64;109850;1241;62342;-72
2023/04/05 02:28:19;;;;;;;8.10;5.30;;;;;;;-0.75;100.00;100736.84;109653;1241;60935;-73
2023/04/05 02:30:48;;;;;;;10.30;6.50;;;;;;;-0.76;100.00;100740.95;109789;1238;71034;-71
2023/04/05 02:33:18;;;;;;;10.30;6.80;;;;;;;-0.80;100.00;100738.86;109832;1238;71479;-71
2023/04/05 02:35:51;;;;;;;7.30;5.20;;;;;;;-0.80;100.00;100736.10;110037;1238;69748;-71
2023/04/05 02:38:20;;;;;;;6.40;4.30;;;;;;;-0.78;100.00;100732.13;109852;1238;73612;-71
2023/04/05 02:40:50;;;;;;;8.70;5.70;;;;;;;-0.79;100.00;100735.40;109764;1242;60508;-72
2023/04/05 02:43:19;;;;;;;12.20;6.00;;;;;;;-0.81;100.00;100736.30;109762;1241;58853;-71
2023/04/05 02:45:51;;;;;;;9.70;6.40;;;;;;;-0.84;100.00;100735.19;109910;1238;72944;-71
2023/04/05 02:48:20;;;;;;;9.50;5.80;;;;;;;-0.76;100.00;100740.64;109593;1238;71708;-71
2023/04/05 02:50:50;;;;;;;8.80;6.20;;;;;;;-0.80;100.00;100754.58;109771;1238;68286;-71
2023/04/05 02:53:20;;;;;;;11.40;6.90;;;;;;;-0.84;100.00;100749.70;109733;1238;73024;-70
2023/04/05 02:55:56;;;;;;;9.50;5.90;;;;;;;-0.84;100.00;100754.52;109896;1241;60431;-70
2023/04/05 02:58:25;;;;;;;10.70;6.90;;;;;;;-0.92;100.00;100738.79;109793;1238;59575;-70
2023/04/05 03:00:55;;;;;;;10.90;6.10;;;;;;;-0.87;100.00;100740.21;109741;1242;72412;-70
2023/04/05 03:03:30;;;;;;;9.20;7.10;;;;;;;-0.90;100.00;100745.58;109942;1237;70812;-70
2023/04/05 03:06:08;;;;;;;10.60;6.30;;;;;;;-0.89;100.00;100746.06;109906;1238;67812;-71
2023/04/05 03:08:48;;;;;;;10.30;7.30;;;;;;;-0.88;100.00;100740.42;109879;1240;71836;-70
2023/04/05 03:11:24;;;;;;;8.70;5.90;;;;;;;-0.86;100.00;100752.65;109913;1238;61494;-71
2023/04/05 03:13:56;;;;;;;9.90;6.20;;;;;;;-0.84;100.00;100754.84;109924;1238;59977;-71
2023/04/05 03:16:45;;;;;;;10.80;7.40;;;;;;;-0.84;100.00;100751.26;110001;1238;72275;-72
2023/04/05 03:19:25;;;;;;;11.40;7.10;;;;;;;-0.88;100.00;100748.96;109918;1238;69825;-72
2023/04/05 03:21:57;;;;;;;8.60;6.20;;;;;;;-0.78;100.00;100749.92;109788;1240;68653;-71
2023/04/05 03:24:30;;;;;;;6.80;4.50;;;;;;;-0.80;100.00;100760.23;109961;1241;73113;-72
2023/04/05 03:27:04;;;;;;;6.60;5.20;;;;;;;-0.79;100.00;100750.30;109942;1240;61195;-71
2023/04/05 03:29:55;;;;;;;11.60;7.90;;;;;;;-0.87;100.00;100749.29;109936;1238;60750;-71
2023/04/05 03:32:24;;;;;;;10.40;6.80;;;;;;;-0.83;100.00;100757.20;110015;1238;75307;-71
2023/04/05 03:34:59;;;;;;;10.00;6.60;;;;;;;-0.84;100.00;100748.52;109805;1241;73087;-72
2023/04/05 03:37:29;;;;;;;8.70;6.40;;;;;;;-0.85;100.00;100740.84;109943;1240;70170;-71
2023/04/05 03:40:05;;;;;;;11.40;6.30;;;;;;;-0.81;100.00;100746.89;109979;1242;70435;-71
2023/04/05 03:42:35;;;;;;;11.50;8.20;;;;;;;-0.78;100.00;100748.70;110076;1242;61306;-71
2023/04/05 03:45:05;;;;;;;12.40;7.20;;;;;;;-0.81;100.00;100745.02;110153;1238;60908;-71
2023/04/05 03:47:33;;;;;;;8.80;6.60;;;;;;;-0.85;100.00;100756.59;109806;1240;73982;-72
2023/04/05 03:50:05;;;;;;;7.90;5.90;;;;;;;-0.85;100.00;100770.44;109880;1238;70981;-72
2023/04/05 03:52:33;;;;;;;11.00;6.90;;;;;;;-0.84;100.00;100774.69;109976;1238;70007;-73
2023/04/05 03:55:03;;;;;;;11.50;6.80;;;;;;;-0.89;100.00;100768.14;109995;1239;74474;-72
2023/04/05 03:57:33;;;;;;;9.80;6.50;;;;;;;-0.85;100.00;100776.58;110199;1242;60213;-74
2023/04/05 04:00:16;;;;;;;10.10;5.50;;;;;;;-0.77;100.00;100763.40;110144;1237;58855;-75
2023/04/05 04:02:53;;;;;;;14.80;8.60;;;;;;;-0.81;100.00;100770.48;110124;1244;72414;-73
2023/04/05 04:05:23;;;;;;;10.40;6.60;;;;;;;-0.81;100.00;100764.52;110316;1238;71729;-74
2023/04/05 04:07:54;;;;;;;10.80;6.60;;;;;;;-0.78;100.00;100770.80;110046;1243;68213;-74
2023/04/05 04:10:23;;;;;;;12.80;8.30;;;;;;;-0.78;100.00;100769.94;109964;1238;73198;-74
2023/04/05 04:12:56;;;;;;;12.30;7.60;;;;;;;-0.80;100.00;100764.34;110031;1240;61083;-74
2023/04/05 04:15:28;;;;;;;11.80;7.60;;;;;;;-0.81;100.00;100764.86;110058;1241;62266;-73
2023/04/05 04:18:16;;;;;;;11.90;7.30;;;;;;;-0.78;100.00;100750.76;109970;1242;73017;-71
2023/04/05 04:21:05;;;;;;;12.80;8.30;;;;;;;-0.78;100.00;100750.44;109952;1238;71602;-71
2023/04/05 04:23:51;;;;;;;8.90;6.20;;;;;;;-0.78;100.00;100741.20;109769;1238;70894;-72
2023/04/05 04:26:39;;;;;;;11.40;7.20;;;;;;;-0.85;100.00;100746.14;109901;1241;74237;-71
2023/04/05 04:30:14;;;;;;;11.40;7.70;;;;;;;-0.83;100.00;100742.84;109494;1245;61097;-71
2023/04/05 04:33:03;;;;;;;11.30;7.00;;;;;;;-0.78;100.00;100747.15;109900;1238;60364;-71
2023/04/05 04:35:56;;;;;;;10.30;6.90;;;;;;;-0.79;100.00;100737.09;109948;1238;72776;-71
2023/04/05 04:38:43;;;;;;;10.80;7.50;;;;;;;-0.79;100.00;100747.20;109753;1238;72225;-70
2023/04/05 04:41:54;;;;;;;9.80;7.60;;;;;;;-0.77;100.00;100733.29;109687;1238;70787;-70
2023/04/05 04:44:29;;;;;;;11.70;6.70;;;;;;;-0.81;100.00;100749.65;109835;1242;71921;-70
2023/04/05 04:47:44;;;;;;;10.40;6.50;;;;;;;-0.76;100.00;100749.02;109695;1241;60499;-70
2023/04/05 04:51:01;;;;;;;11.10;6.90;;;;;;;-0.74;100.00;100763.48;109772;1238;60488;-71
2023/04/05 04:53:33;;;;;;;9.90;6.50;;;;;;;-0.72;100.00;100766.19;109839;1241;73522;-72
2023/04/05 04:56:07;;;;;;;15.00;9.20;;;;;;;-0.70;100.00;100765.45;109999;1242;71755;-71
2023/04/05 04:58:36;;;;;;;14.70;8.30;;;;;;;-0.73;100.00;100768.42;109768;1242;67839;-70
2023/04/05 05:01:11;;;;;;;10.70;7.70;;;;;;;-0.70;100.00;100750.91;109877;1241;71398;-71
2023/04/05 05:03:41;;;;;;;13.80;10.60;;;;;;;-0.68;100.00;100756.83;110007;1239;62084;-73
2023/04/05 05:06:11;;;;;;;11.40;7.90;;;;;;;-0.76;100.00;100766.44;109939;1238;61126;-72
2023/04/05 05:08:40;;;;;;;11.60;8.00;;;;;;;-0.70;100.00;100756.90;109983;1241;72127;-72
2023/04/05 05:11:09;;;;;;;13.20;9.10;;;;;;;-0.71;100.00;100770.44;109948;1242;69468;-72
2023/04/05 05:13:38;;;;;;;13.70;9.10;;;;;;;-0.69;100.00;100760.96;109936;1238;70457;-73
2023/04/05 05:16:10;;;;;;;13.70;8.10;;;;;;;-0.68;100.00;100756.66;109883;1241;73629;-73
2023/04/05 05:18:40;;;;;;;13.20;9.50;;;;;;;-0.68;100.00;100758.39;109961;1241;61093;-72
2023/04/05 05:21:09;;;;;;;12.90;8.30;;;;;;;-0.73;100.00;100750.30;109997;1238;59246;-73
2023/04/05 05:23:38;;;;;;;10.20;7.30;;;;;;;-0.73;100.00;100762.29;109874;1238;72346;-71
2023/04/05 05:26:07;;;;;;;15.20;9.20;;;;;;;-0.72;100.00;100763.45;109838;1238;72220;-72
2023/04/05 05:28:36;;;;;;;10.50;6.40;;;;;;;-0.71;100.00;100760.52;109807;1238;70747;-73
2023/04/05 05:31:05;;;;;;;18.10;10.20;;;;;;;-0.72;100.00;100769.41;109727;1241;72515;-72
2023/04/05 05:33:36;;;;;;;13.70;9.60;;;;;;;-0.76;100.00;100773.98;109740;1242;60303;-72
2023/04/05 05:36:05;;;;;;;14.10;9.00;;;;;;;-0.74;100.00;100760.23;109839;1238;61191;-72
2023/04/05 05:45:44;;;;;;;13.90;9.30;;;;;;;-0.86;100.00;100759.84;104578;1283;599573;-72
2023/04/05 05:48:14;;;;;;;15.90;10.10;;;;;;;-0.81;100.00;100762.45;108805;1251;59956;-70
2023/04/05 05:50:47;;;;;;;19.20;12.10;;;;;;;-0.82;100.00;100767.63;106746;1260;60376;-70
2023/04/05 05:53:16;;;;;;;23.40;13.80;;;;;;;-0.80;100.00;100759.38;107106;1252;71391;-70
2023/04/05 05:55:46;;;;;;;25.90;13.50;;;;;;;-0.79;100.00;100757.95;107327;1247;71335;-71
2023/04/05 05:58:15;;;;;;;15.90;9.70;;;;;;;-0.81;100.00;100768.10;106705;1247;425557;-71
2023/04/05 06:00:43;;;;;;;13.60;8.70;;;;;;;-0.76;100.00;100774.49;107109;1246;73819;-72
2023/04/05 06:03:12;;;;;;;15.80;11.10;;;;;;;-0.75;100.00;100763.50;107356;1245;61587;-73
2023/04/05 06:05:54;;;;;;;16.30;11.30;;;;;;;-0.74;100.00;100767.42;107316;1246;61760;-71
2023/04/05 06:08:23;;;;;;;11.70;8.00;;;;;;;-0.76;100.00;100769.20;107160;1244;72512;-72
2023/04/05 06:10:53;;;;;;;11.90;8.00;;;;;;;-0.71;100.00;100773.67;107319;1255;71859;-72
2023/04/05 06:13:22;;;;;;;14.60;9.70;;;;;;;-0.72;100.00;100770.98;107308;1245;68116;-72
2023/04/05 06:15:51;;;;;;;12.50;9.30;;;;;;;-0.80;100.00;100772.88;107296;1245;72846;-72
2023/04/05 06:18:20;;;;;;;12.40;9.10;;;;;;;-0.72;100.00;100767.37;107313;1244;61718;-73
2023/04/05 06:20:50;;;;;;;11.80;8.50;;;;;;;-0.69;100.00;100762.70;107192;1246;61091;-75
2023/04/05 06:23:18;;;;;;;15.60;9.40;;;;;;;-0.72;100.00;100773.55;107130;1245;70629;-76
2023/04/05 06:25:47;;;;;;;14.80;10.40;;;;;;;-0.70;100.00;100779.46;107091;1245;71989;-70
2023/04/05 06:28:16;;;;;;;15.20;9.60;;;;;;;-0.69;100.00;100781.67;107013;1256;68633;-72
2023/04/05 06:30:45;;;;;;;17.10;10.80;;;;;;;-0.65;100.00;100768.40;107042;1245;73222;-72
2023/04/05 06:33:14;;;;;;;14.90;8.50;;;;;;;-0.66;100.00;100769.25;107201;1245;63002;-73
2023/04/05 06:35:43;;;;;;;14.30;8.80;;;;;;;-0.63;100.00;100779.13;107198;1245;60396;-76
2023/04/05 06:38:12;;;;;;;17.70;9.80;;;;;;;-0.63;100.00;100767.48;107297;1247;72369;-73
2023/04/05 06:40:41;;;;;;;10.90;7.10;;;;;;;-0.59;100.00;100786.02;107255;1246;70735;-73
2023/04/05 06:43:11;;;;;;;12.50;7.90;;;;;;;-0.60;100.00;100789.48;107194;1254;70010;-70
2023/04/05 06:45:41;;;;;;;16.10;10.60;;;;;;;-0.57;100.00;100780.50;107137;1256;73400;-72
2023/04/05 06:48:11;;;;;;;18.30;11.40;;;;;;;-0.56;100.00;100784.23;107100;1248;63375;-72
2023/04/05 06:50:40;;;;;;;11.90;7.80;;;;;;;-0.51;100.00;100790.45;107242;1244;61326;-71
2023/04/05 06:53:10;;;;;;;13.10;9.50;;;;;;;-0.50;100.00;100774.70;107238;1244;73224;-70
2023/04/05 06:55:41;;;;;;;11.20;7.40;;;;;;;-0.43;100.00;100767.48;107177;1245;69948;-71
2023/04/05 06:58:10;;;;;;;14.40;9.80;;;;;;;-0.40;100.00;100785.89;107078;1246;67102;-70
2023/04/05 07:00:39;;;;;;;15.80;10.40;;;;;;;-0.46;100.00;100776.48;107122;1244;72008;-72
2023/04/05 07:03:09;;;;;;;12.20;9.30;;;;;;;-0.50;100.00;100791.95;107165;1244;61104;-70
2023/04/05 07:05:38;;;;;;;11.80;7.30;;;;;;;-0.52;100.00;100776.45;107149;1255;61164;-70
2023/04/05 07:08:07;;;;;;;16.00;10.10;;;;;;;-0.46;100.00;100778.19;107100;1244;72688;-71
2023/04/05 07:10:40;;;;;;;15.60;10.30;;;;;;;-0.58;100.00;100777.79;107187;1244;72068;-75
2023/04/05 07:13:10;;;;;;;11.90;8.90;;;;;;;-0.53;100.00;100780.08;107197;1256;69297;-77
2023/04/05 07:15:39;;;;;;;19.00;11.10;;;;;;;-0.53;100.00;100776.81;107284;1244;73911;-70
2023/04/05 07:18:08;;;;;;;11.50;8.10;;;;;;;-0.56;100.00;100770.05;107147;1255;61409;-70
2023/04/05 07:20:38;;;;;;;16.30;10.00;;;;;;;-0.48;100.00;100777.91;107157;1244;60646;-70
2023/04/05 07:23:07;;;;;;;16.90;10.50;;;;;;;-0.50;100.00;100781.36;107096;1255;72081;-70
2023/04/05 07:25:39;;;;;;;12.20;8.40;;;;;;;-0.48;100.00;100764.20;107076;1243;72188;-71
2023/04/05 07:28:09;;;;;;;14.90;10.30;;;;;;;-0.52;100.00;100782.27;107127;1244;71182;-69
2023/04/05 07:30:38;;;;;;;13.80;9.50;;;;;;;-0.46;100.00;100799.05;107138;1245;74400;-69
2023/04/05 07:33:07;;;;;;;18.60;11.50;;;;;;;-0.51;100.00;100785.84;107281;1252;60824;-69
2023/04/05 07:35:36;;;;;;;14.80;9.90;;;;;;;-0.58;100.00;100791.84;107295;1254;60417;-71
2023/04/05 07:38:05;;;;;;;20.40;13.20;;;;;;;-0.52;100.00;100787.05;107324;1243;73130;-77
2023/04/05 07:40:35;;;;;;;15.80;10.80;;;;;;;-0.59;100.00;100794.92;107434;1244;72375;-69
2023/04/05 07:43:04;;;;;;;18.80;10.70;;;;;;;-0.58;100.00;100803.80;107308;1244;72293;-71
2023/04/05 07:45:33;;;;;;;13.00;8.80;;;;;;;-0.59;100.00;100779.52;107392;1245;71595;-71
2023/04/05 07:48:03;;;;;;;15.00;8.70;;;;;;;-0.59;100.00;100795.45;107452;1245;60728;-70
2023/04/05 07:50:35;;;;;;;14.00;9.20;;;;;;;-0.62;100.00;100793.11;107453;1241;59098;-70
2023/04/05 07:53:04;;;;;;;19.10;12.20;;;;;;;-0.63;100.00;100797.08;107416;1252;72674;-70
2023/04/05 07:55:36;;;;;;;15.60;9.90;;;;;;;-0.69;100.00;100794.67;107399;1246;69088;-71
2023/04/05 07:58:05;;;;;;;21.50;11.50;;;;;;;-0.64;100.00;100797.98;107410;1241;70477;-70
2023/04/05 08:00:35;;;;;;;17.20;11.10;;;;;;;-0.63;100.00;100794.68;107332;1244;74271;-71
2023/04/05 08:03:06;;;;;;;19.20;12.40;;;;;;;-0.64;100.00;100801.89;107439;1255;62469;-72
2023/04/05 08:05:35;;;;;;;15.30;10.80;;;;;;;-0.70;100.00;100790.08;107374;1244;61500;-73
2023/04/05 08:08:07;;;;;;;17.30;10.10;;;;;;;-0.69;100.00;100797.75;107329;1244;71946;-71
2023/04/05 08:10:39;;;;;;;13.90;9.60;;;;;;;-0.70;100.00;100794.52;107372;1244;70239;-72
2023/04/05 08:13:09;;;;;;;16.20;10.80;;;;;;;-0.71;100.00;100801.73;107313;1241;70372;-71
2023/04/05 08:15:39;;;;;;;18.30;9.60;;;;;;;-0.70;100.00;100797.44;107330;1245;73853;-71
2023/04/05 08:18:08;;;;;;;17.70;10.60;;;;;;;-0.72;100.00;100799.88;107294;1248;60020;-70
2023/04/05 08:20:39;;;;;;;16.50;11.00;;;;;;;-0.65;100.00;100794.55;107365;1254;60650;-70
2023/04/05 08:23:08;;;;;;;11.70;7.60;;;;;;;-0.67;100.00;100801.80;107352;1242;70623;-70
2023/04/05 08:25:37;;;;;;;21.30;13.50;;;;;;;-0.65;100.00;100807.92;107383;1241;69817;-70
2023/04/05 08:28:09;;;;;;;18.30;9.80;;;;;;;-0.60;100.00;100800.25;107381;1253;67856;-70
2023/04/05 08:30:40;;;;;;;15.70;10.40;;;;;;;-0.63;100.00;100804.45;107450;1253;71837;-71
2023/04/05 08:33:09;;;;;;;16.60;10.00;;;;;;;-0.66;100.00;100803.66;107378;1244;60415;-71
2023/04/05 08:35:39;;;;;;;20.00;12.50;;;;;;;-0.60;100.00;100806.91;107376;1251;58855;-71
2023/04/05 08:38:08;;;;;;;21.90;12.70;;;;;;;-0.56;100.00;100809.20;107187;1245;71934;-72
2023/04/05 08:40:41;;;;;;;15.80;10.50;;;;;;;-0.53;100.00;100809.14;107302;1241;72025;-72
2023/04/05 08:44:02;;;;;;;15.40;10.30;;;;;;;-0.53;100.00;100816.16;107362;1254;70022;-70
2023/04/05 08:46:33;;;;;;;13.20;9.70;;;;;;;-0.55;100.00;100811.60;107382;1244;74180;-73
2023/04/05 08:49:07;;;;;;;15.90;9.10;;;;;;;-0.54;100.00;100804.40;107159;1248;62136;-73
2023/04/05 08:51:38;;;;;;;19.70;11.70;;;;;;;-0.51;100.00;100808.44;107283;1246;59887;-72
2023/04/05 08:54:07;;;;;;;12.80;8.40;;;;;;;-0.47;100.00;100814.46;107292;1247;70958;-71
2023/04/05 08:56:38;;;;;;;17.00;9.50;;;;;;;-0.49;100.00;100815.21;107326;1242;69879;-71
2023/04/05 08:59:09;;;;;;;11.50;6.90;;;;;;;-0.48;100.00;100816.23;107297;1255;69740;-71
2023/04/05 09:01:43;;;;;;;22.80;12.20;;;;;;;-0.45;100.00;100820.74;107403;1245;73731;-70
2023/04/05 09:04:23;;;;;;;16.60;8.70;;;;;;;-0.46;100.00;100818.39;107302;1253;61958;-71
2023/04/05 09:06:56;;;;;;;15.70;9.90;;;;;;;-0.37;100.00;100822.41;107361;1244;60986;-70
2023/04/05 09:09:27;;;;;;;25.00;13.50;;;;;;;-0.36;100.00;100829.43;107295;1248;71220;-71
2023/04/05 09:11:58;;;;;;;12.30;8.30;;;;;;;-0.31;100.00;100819.73;107259;1243;71696;-70
2023/04/05 09:14:29;;;;;;;13.70;8.70;;;;;;;-0.26;100.00;100822.17;107362;1244;70745;-71
2023/04/05 09:17:01;;;;;;;23.40;13.50;;;;;;;-0.25;100.00;100820.58;107280;1245;72596;-70
2023/04/05 09:19:30;;;;;;;20.90;12.50;;;;;;;-0.24;100.00;100819.35;107309;1245;60371;-71
2023/04/05 09:22:10;;;;;;;21.80;12.70;;;;;;;-0.19;100.00;100824.55;107312;1244;60532;-71
2023/04/05 09:24:42;;;;;;;20.40;10.70;;;;;;;-0.24;100.00;100823.30;107053;1248;71351;-71
2023/04/05 09:27:18;;;;;;;16.70;10.50;;;;;;;-0.23;100.00;100820.88;107099;1246;69558;-71
2023/04/05 09:29:58;;;;;;;18.60;12.50;;;;;;;-0.14;100.00;100816.36;107208;1244;68121;-71
2023/04/05 09:32:28;;;;;;;17.10;10.80;;;;;;;-0.09;100.00;100806.11;107206;1241;74625;-71
2023/04/05 09:35:03;;;;;;;16.20;10.10;;;;;;;0.01;100.00;100805.86;107197;1244;61707;-71
2023/04/05 09:37:34;;;;;;;13.90;7.80;;;;;;;-0.05;100.00;100810.83;107268;1248;59170;-71
2023/04/05 09:40:05;;;;;;;23.50;13.70;;;;;;;-0.00;100.00;100804.00;107161;1241;70240;-70
2023/04/05 09:42:44;;;;;;;22.10;11.60;;;;;;;0.02;100.00;100804.47;107131;1244;69515;-70
2023/04/05 09:45:17;;;;;;;21.70;13.50;;;;;;;-0.00;100.00;100807.79;107172;1245;69859;-70
2023/04/05 09:47:57;;;;;;;20.30;10.30;;;;;;;0.08;100.00;100792.48;106930;1247;74463;-69
2023/04/05 09:50:26;;;;;;;14.30;9.10;;;;;;;0.03;100.00;100806.99;107205;1244;62124;-70
2023/04/05 09:53:14;;;;;;;12.70;9.40;;;;;;;0.07;100.00;100805.71;107191;1255;60446;-71
2023/04/05 09:55:46;;;;;;;22.10;12.70;;;;;;;-0.01;100.00;100807.96;107164;1254;72570;-71
2023/04/05 09:58:20;;;;;;;14.20;8.30;;;;;;;0.01;100.00;100797.65;107401;1245;72476;-71
2023/04/05 10:00:53;;;;;;;19.50;11.50;;;;;;;0.08;100.00;100784.77;107348;1248;70721;-71
2023/04/05 10:03:50;;;;;;;15.00;9.10;;;;;;;0.07;100.00;100802.61;107114;1245;72542;-71
2023/04/05 10:06:20;;;;;;;12.70;8.20;;;;;;;-0.04;100.00;100801.52;107427;1244;60364;-70
2023/04/05 10:08:49;;;;;;;9.80;7.30;;;;;;;0.00;100.00;100795.79;107067;1242;61267;-70
2023/04/05 10:11:19;;;;;;;15.00;10.00;;;;;;;-0.02;100.00;100803.71;107228;1245;72283;-75
2023/04/05 10:13:50;;;;;;;14.80;9.60;;;;;;;-0.02;100.00;100800.12;107095;1255;70910;-71
2023/04/05 10:16:23;;;;;;;10.10;7.30;;;;;;;0.03;100.00;100800.84;107213;1255;69491;-72
2023/04/05 10:18:52;;;;;;;13.90;8.40;;;;;;;0.00;100.00;100803.14;107081;1246;73436;-73
2023/04/05 10:21:28;;;;;;;14.70;8.50;;;;;;;0.01;100.00;100800.73;107233;1244;60110;-73
2023/04/05 10:24:14;;;;;;;14.70;8.40;;;;;;;0.01;100.00;100806.54;107205;1254;59635;-72
2023/04/05 10:27:01;;;;;;;14.40;9.30;;;;;;;0.04;100.00;100798.58;107200;1255;72908;-71
2023/04/05 10:29:43;;;;;;;14.10;10.10;;;;;;;-0.00;100.00;100808.81;107121;1255;70304;-72
2023/04/05 10:32:57;;;;;;;13.70;8.20;;;;;;;-0.05;100.00;100816.11;107233;1245;69789;-72
2023/04/05 10:35:48;;;;;;;;;;;;;;;-0.00;100.00;100802.66;107202;1241;72997;-73
2023/04/05 10:38:42;;;;;;;14.10;9.60;;;;;;;-0.01;100.00;100795.65;107148;1245;60654;-70
2023/04/05 10:41:15;;;;;;;10.20;7.10;;;;;;;0.02;100.00;100801.20;107017;1244;61159;-73
2023/04/05 10:43:46;;;;;;;;;;;;;;;0.06;100.00;100785.86;107153;1255;72522;-73
2023/04/05 10:46:20;;;;;;;10.90;7.30;;;;;;;0.01;100.00;100795.58;107188;1255;72924;-73
2023/04/05 10:49:08;;;;;;;15.30;10.50;;;;;;;0.03;100.00;100798.10;106976;1241;71260;-76
2023/04/05 10:51:38;;;;;;;17.50;10.50;;;;;;;-0.02;100.00;100796.68;107149;1246;71954;-72
2023/04/05 10:54:10;;;;;;;17.30;10.80;;;;;;;-0.09;100.00;100803.73;107167;1245;60276;-79
2023/04/05 10:56:39;;;;;;;19.00;13.10;;;;;;;-0.08;100.00;100807.33;109537;1241;60479;-73
2023/04/05 10:59:10;;;;;;;15.00;9.70;;;;;;;-0.21;100.00;100803.69;109558;1241;72305;-73
2023/04/05 11:01:41;;;;;;;17.80;10.20;;;;;;;-0.12;100.00;100800.73;109519;1241;71427;-72
2023/04/05 11:04:12;;;;;;;22.60;12.10;;;;;;;-0.11;100.00;100802.25;109532;1241;70406;-73
2023/04/05 11:06:47;;;;;;;24.10;13.00;;;;;;;-0.07;100.00;100804.88;109460;1241;72284;-74
2023/04/05 11:09:19;;;;;;;14.40;10.00;;;;;;;-0.05;100.00;100795.05;109587;1243;61321;-73
2023/04/05 11:11:51;;;;;;;16.50;10.80;;;;;;;-0.07;100.00;100804.38;109600;1241;58774;-75
2023/04/05 11:14:34;;;;;;;17.80;10.10;;;;;;;-0.08;100.00;100803.86;109678;1241;71638;-74
2023/04/05 11:17:03;;;;;;;13.60;7.90;;;;;;;-0.12;100.00;100804.67;109719;1241;72107;-74
2023/04/05 11:19:48;;;;;;;15.30;9.50;;;;;;;-0.14;100.00;100807.10;109434;1241;70007;-73
2023/04/05 11:22:29;;;;;;;16.10;9.30;;;;;;;-0.11;100.00;100812.86;109321;1241;74431;-73
2023/04/05 11:25:01;;;;;;;18.50;11.70;;;;;;;-0.24;100.00;100812.19;109326;1241;59678;-76
2023/04/05 11:27:33;;;;;;;11.80;8.80;;;;;;;-0.18;100.00;100808.07;109441;1241;59815;-75
2023/04/05 11:30:05;;;;;;;14.40;9.80;;;;;;;-0.17;100.00;100800.52;109605;1241;73356;-75
2023/04/05 11:32:42;;;;;;;18.50;12.10;;;;;;;-0.20;100.00;100808.64;109523;1241;72545;-82
2023/04/05 11:35:21;;;;;;;15.80;9.90;;;;;;;-0.14;100.00;100812.09;109679;1241;68513;-74
2023/04/05 11:37:59;;;;;;;11.20;6.90;;;;;;;-0.04;100.00;100810.29;109667;1241;71818;-74
2023/04/05 11:40:31;;;;;;;13.70;8.50;;;;;;;-0.02;100.00;100810.05;109556;1244;60244;-74